Time,TemperatureF,DewpointF,PressureIn,WindDirection,WindDirectionDegrees,WindSpeedMPH,WindSpeedGustMPH,Humidity,HourlyPrecipIn,Conditions,Clouds,dailyrainin,SoftwareType,DateUTC
2013-08-25 00:03:00,78.0,64.0,-100.00,SW,220,4.0,19.0,62,0.00,,,-99.99,,2013-08-25 05:03:00,
2013-08-25 00:12:00,78.0,64.0,-100.00,SW,220,4.0,19.0,62,0.00,,,-99.99,,2013-08-25 05:12:00,
2013-08-25 00:52:00,78.0,66.0,-100.00,South,190,7.0,17.0,67,0.00,,,-99.99,,2013-08-25 05:52:00,
2013-08-25 01:03:00,78.0,66.0,-100.00,South,190,7.0,17.0,67,0.00,,,-99.99,,2013-08-25 06:03:00,
2013-08-25 01:12:00,78.0,66.0,-100.00,South,190,7.0,17.0,67,0.00,,,-99.99,,2013-08-25 06:12:00,
2013-08-25 01:43:00,77.0,66.0,-100.00,SW,220,4.0,14.0,70,0.00,,,-99.99,,2013-08-25 06:43:00,
2013-08-25 01:52:00,77.0,66.0,-100.00,SW,220,4.0,14.0,70,0.00,,,-99.99,,2013-08-25 06:52:00,
2013-08-25 02:01:00,77.0,66.0,-100.00,SW,220,4.0,14.0,70,0.00,,,-99.99,,2013-08-25 07:01:00,
2013-08-25 02:12:00,77.0,66.0,-100.00,SW,220,4.0,14.0,70,0.00,,,-99.99,,2013-08-25 07:12:00,
2013-08-25 02:52:00,76.0,67.0,-100.00,SSW,210,6.0,16.0,72,0.00,,,-99.99,,2013-08-25 07:52:00,
2013-08-25 03:02:00,76.0,67.0,-100.00,SSW,210,6.0,16.0,72,0.00,,,-99.99,,2013-08-25 08:02:00,
2013-08-25 03:12:00,76.0,67.0,-100.00,SSW,210,6.0,16.0,72,0.00,,,-99.99,,2013-08-25 08:12:00,
2013-08-25 03:52:00,76.0,66.0,-100.00,SW,215,4.0,13.0,72,0.00,,,-99.99,,2013-08-25 08:52:00,
2013-08-25 04:02:00,76.0,66.0,-100.00,SW,215,4.0,13.0,72,0.00,,,-99.99,,2013-08-25 09:02:00,
2013-08-25 04:11:00,76.0,66.0,-100.00,SW,215,4.0,13.0,72,0.00,,,-99.99,,2013-08-25 09:11:00,
2013-08-25 04:44:00,76.0,66.0,-100.00,WSW,240,6.0,15.0,72,0.00,,,-99.99,,2013-08-25 09:44:00,
2013-08-25 04:55:00,76.0,66.0,-100.00,WSW,240,6.0,15.0,72,0.00,,,-99.99,,2013-08-25 09:55:00,
2013-08-25 05:03:00,76.0,66.0,-100.00,WSW,240,6.0,15.0,72,0.00,,,-99.99,,2013-08-25 10:03:00,
2013-08-25 05:12:00,76.0,66.0,-100.00,WSW,240,6.0,15.0,72,0.00,,,-99.99,,2013-08-25 10:12:00,
2013-08-25 05:42:00,76.0,66.0,-100.00,SW,220,4.0,24.0,71,0.00,,,-99.99,,2013-08-25 10:42:00,
2013-08-25 05:53:00,76.0,66.0,-100.00,SW,220,4.0,24.0,71,0.00,,,-99.99,,2013-08-25 10:53:00,
2013-08-25 06:02:00,76.0,66.0,-100.00,SW,220,4.0,24.0,71,0.00,,,-99.99,,2013-08-25 11:02:00,
2013-08-25 06:12:00,76.0,66.0,-100.00,SW,220,4.0,24.0,71,0.00,,,-99.99,,2013-08-25 11:12:00,
2013-08-25 06:52:00,76.0,66.0,-100.00,West,275,5.0,14.0,71,0.00,,,-99.99,,2013-08-25 11:52:00,
2013-08-25 07:01:00,76.0,66.0,-100.00,West,275,5.0,14.0,71,0.00,,,-99.99,,2013-08-25 12:01:00,
2013-08-25 07:12:00,76.0,66.0,-100.00,West,275,5.0,14.0,71,0.00,,,-99.99,,2013-08-25 12:12:00,
2013-08-25 07:43:00,76.0,66.0,-100.00,SW,215,6.0,19.0,70,0.00,,,-99.99,,2013-08-25 12:43:00,
2013-08-25 07:52:00,76.0,66.0,-100.00,SW,215,6.0,19.0,70,0.00,,,-99.99,,2013-08-25 12:52:00,
2013-08-25 08:02:00,76.0,66.0,-100.00,SW,215,6.0,19.0,70,0.00,,,-99.99,,2013-08-25 13:02:00,
2013-08-25 08:12:00,76.0,66.0,-100.00,SW,215,6.0,19.0,70,0.00,,,-99.99,,2013-08-25 13:12:00,
2013-08-25 08:42:00,77.0,66.0,-100.00,WSW,245,6.0,19.0,69,0.00,,,-99.99,,2013-08-25 13:42:00,
2013-08-25 08:52:00,77.0,66.0,-100.00,WSW,245,6.0,19.0,69,0.00,,,-99.99,,2013-08-25 13:52:00,
2013-08-25 09:02:00,77.0,66.0,-100.00,WSW,245,6.0,19.0,69,0.00,,,-99.99,,2013-08-25 14:02:00,
2013-08-25 09:11:00,77.0,66.0,-100.00,WSW,245,6.0,19.0,69,0.00,,,-99.99,,2013-08-25 14:11:00,
2013-08-25 09:52:00,81.0,66.0,-100.00,SW,225,4.0,19.0,60,0.00,,,-99.99,,2013-08-25 14:52:00,
2013-08-25 10:01:00,81.0,66.0,-100.00,SW,225,4.0,19.0,60,0.00,,,-99.99,,2013-08-25 15:01:00,
2013-08-25 10:11:00,81.0,66.0,-100.00,SW,225,4.0,19.0,60,0.00,,,-99.99,,2013-08-25 15:11:00,
2013-08-25 10:14:00,83.0,65.0,-100.00,SW,235,6.0,16.0,56,0.00,,,-99.99,,2013-08-25 15:14:00,
2013-08-25 10:55:00,83.0,65.0,-100.00,SW,235,6.0,16.0,56,0.00,,,-99.99,,2013-08-25 15:55:00,
2013-08-25 11:05:00,83.0,65.0,-100.00,SW,235,6.0,16.0,56,0.00,,,-99.99,,2013-08-25 16:05:00,
2013-08-25 11:44:00,86.0,65.0,-100.00,SW,230,6.0,18.0,50,0.00,,,-99.99,,2013-08-25 16:44:00,
2013-08-25 11:54:00,86.0,65.0,-100.00,SW,230,6.0,18.0,50,0.00,,,-99.99,,2013-08-25 16:54:00,
2013-08-25 12:03:00,86.0,65.0,-100.00,SW,230,6.0,18.0,50,0.00,,,-99.99,,2013-08-25 17:03:00,
2013-08-25 12:11:00,86.0,65.0,-100.00,SW,230,6.0,18.0,50,0.00,,,-99.99,,2013-08-25 17:11:00,
2013-08-25 12:43:00,89.0,65.0,-100.00,SSW,195,4.0,14.0,44,0.00,,,-99.99,,2013-08-25 17:43:00,
2013-08-25 19:52:00,84.0,72.0,-100.00,WNW,295,0.0,1.0,66,0.00,,,-99.99,,2013-08-26 00:52:00,
2013-08-25 20:01:00,84.0,72.0,-100.00,WNW,295,0.0,1.0,66,0.00,,,-99.99,,2013-08-26 01:01:00,
2013-08-25 20:11:00,84.0,72.0,-100.00,WNW,295,0.0,1.0,66,0.00,,,-99.99,,2013-08-26 01:11:00,
2013-08-25 20:42:00,80.0,72.0,-100.00,WNW,285,1.0,1.0,77,0.00,,,-99.99,,2013-08-26 01:42:00,
2013-08-25 20:52:00,80.0,72.0,-100.00,WNW,285,1.0,1.0,77,0.00,,,-99.99,,2013-08-26 01:52:00,
2013-08-25 21:02:00,80.0,72.0,-100.00,WNW,285,1.0,1.0,77,0.00,,,-99.99,,2013-08-26 02:02:00,
2013-08-25 21:11:00,80.0,72.0,-100.00,WNW,285,1.0,1.0,77,0.00,,,-99.99,,2013-08-26 02:11:00,
2013-08-25 21:52:00,78.0,71.0,-100.00,WNW,300,0.0,1.0,81,0.00,,,-99.99,,2013-08-26 02:52:00,
2013-08-25 22:02:00,78.0,71.0,-100.00,WNW,300,0.0,1.0,81,0.00,,,-99.99,,2013-08-26 03:02:00,
2013-08-25 22:11:00,78.0,71.0,-100.00,WNW,300,0.0,1.0,81,0.00,,,-99.99,,2013-08-26 03:11:00,
2013-08-25 22:56:00,82.0,67.0,-100.00,SW,235,4.0,11.0,60,0.00,,,-99.99,,2013-08-26 03:56:00,
2013-08-25 23:05:00,82.0,67.0,-100.00,SW,235,4.0,11.0,60,0.00,,,-99.99,,2013-08-26 04:05:00,
2013-08-25 23:14:00,82.0,67.0,-100.00,SW,235,4.0,11.0,60,0.00,,,-99.99,,2013-08-26 04:14:00,
2013-08-25 23:44:00,83.0,67.0,-100.00,SW,225,2.0,10.0,59,0.00,,,-99.99,,2013-08-26 04:44:00,
2013-08-25 23:53:00,83.0,67.0,-100.00,SW,225,2.0,10.0,59,0.00,,,-99.99,,2013-08-26 04:53:00,